PWSweather.com
Personal Weather Stations
Station Observations
ITROMSHA6
HarstadNO 9407

HarstadNO 9407

Lat: 68.7814767, Lon: 16.5297091

Elevation: 145

Station Type: Davis Vantage Pro2

High Low Average
Temperature 62.5°F16.9°C 44.5°F6.9°C 53.7°F12.1°C
Dew Point 52.2°F11.2°C 42.3°F5.7°C 48.5°F9.2°C
Winds 17.0 mph 27.4 kmh Calm Calm 4.0 mph S6.4 kmh S
Wind Gusts 27.0 mph43.5 kmh -- 2.0 mph3.2 kmh
Humidity 94% 62% 83%
Pressure 29.46 in997.6 mb 29.36 in994.2 mb -
Precipitation 0.06 in1.5 mm - -
Hour Temp Dew Point Humidity Winds Wind Gusts Pressure Precip Precip Rate Daily Precip Total
12:00 AM 62.5°F16.9°C 51.3°F10.7°C 67% 7.0 mph SW11.3 kmh SW 9.0 mph14.5 kmh 29.36 in994.2 mb 0.00 in0.0 mm 0.00 in0.0 mm 0.00 in0.0 mm
12:05 AM 62.5°F16.9°C 51.3°F10.7°C 67% 2.0 mph S3.2 kmh S -- 29.36 in994.2 mb 0.00 in0.0 mm 0.00 in0.0 mm 0.00 in0.0 mm
12:10 AM 62.4°F16.9°C 51.8°F11.0°C 68% 11.0 mph WSW17.7 kmh WSW -- 29.37 in994.6 mb 0.00 in0.0 mm 0.00 in0.0 mm 0.00 in0.0 mm
12:15 AM 62.0°F16.7°C 51.8°F11.0°C 69% 3.0 mph SW4.8 kmh SW -- 29.37 in994.6 mb 0.00 in0.0 mm 0.00 in0.0 mm 0.00 in0.0 mm
12:20 AM 61.6°F16.4°C 51.6°F10.9°C 70% 3.0 mph SW4.8 kmh SW -- 29.37 in994.6 mb 0.00 in0.0 mm 0.00 in0.0 mm 0.00 in0.0 mm
12:25 AM 61.4°F16.3°C 51.4°F10.8°C 70% 10.0 mph SW16.1 kmh SW 17.0 mph27.4 kmh 29.37 in994.6 mb 0.00 in0.0 mm 0.00 in0.0 mm 0.00 in0.0 mm
12:30 AM 61.2°F16.2°C 51.3°F10.7°C 70% 6.0 mph SW9.7 kmh SW -- 29.37 in994.6 mb 0.00 in0.0 mm 0.00 in0.0 mm 0.00 in0.0 mm
12:35 AM 60.8°F16.0°C 51.3°F10.7°C 71% 4.0 mph S6.4 kmh S -- 29.37 in994.6 mb 0.00 in0.0 mm 0.00 in0.0 mm 0.00 in0.0 mm
12:40 AM 60.5°F15.8°C 51.4°F10.8°C 72% 4.0 mph S6.4 kmh S -- 29.38 in994.9 mb 0.00 in0.0 mm 0.00 in0.0 mm 0.00 in0.0 mm
12:45 AM 60.2°F15.7°C 51.6°F10.9°C 73% 7.0 mph SW11.3 kmh SW -- 29.37 in994.6 mb 0.00 in0.0 mm 0.00 in0.0 mm 0.00 in0.0 mm
12:50 AM 59.9°F15.5°C 51.6°F10.9°C 74% 7.0 mph S11.3 kmh S 13.0 mph20.9 kmh 29.37 in994.6 mb 0.00 in0.0 mm 0.00 in0.0 mm 0.00 in0.0 mm
12:55 AM 59.7°F15.4°C 51.8°F11.0°C 75% 3.0 mph S4.8 kmh S -- 29.38 in994.9 mb 0.00 in0.0 mm 0.00 in0.0 mm 0.00 in0.0 mm
01:00 AM 59.5°F15.3°C 51.6°F10.9°C 75% 3.0 mph SW4.8 kmh SW -- 29.38 in994.9 mb 0.00 in0.0 mm 0.00 in0.0 mm 0.00 in0.0 mm
01:05 AM 59.5°F15.3°C 51.6°F10.9°C 75% Calm Calm -- 29.38 in994.9 mb 0.00 in0.0 mm 0.00 in0.0 mm 0.00 in0.0 mm
01:10 AM 59.5°F15.3°C 51.6°F10.9°C 75% 2.0 mph ENE3.2 kmh ENE -- 29.38 in994.9 mb 0.00 in0.0 mm 0.00 in0.0 mm 0.00 in0.0 mm
01:15 AM 59.3°F15.2°C 51.8°F11.0°C 76% Calm Calm 6.0 mph9.7 kmh 29.38 in994.9 mb 0.00 in0.0 mm 0.00 in0.0 mm 0.00 in0.0 mm
01:20 AM 59.2°F15.1°C 51.6°F10.9°C 76% Calm Calm -- 29.38 in994.9 mb 0.00 in0.0 mm 0.00 in0.0 mm 0.00 in0.0 mm
01:25 AM 59.0°F15.0°C 51.4°F10.8°C 76% 3.0 mph SSW4.8 kmh SSW -- 29.38 in994.9 mb 0.00 in0.0 mm 0.00 in0.0 mm 0.00 in0.0 mm
01:30 AM 58.8°F14.9°C 51.6°F10.9°C 77% Calm Calm -- 29.38 in994.9 mb 0.00 in0.0 mm 0.00 in0.0 mm 0.00 in0.0 mm
01:35 AM 58.6°F14.8°C 51.4°F10.8°C 77% Calm Calm -- 29.39 in995.3 mb 0.00 in0.0 mm 0.00 in0.0 mm 0.00 in0.0 mm
01:40 AM 58.3°F14.6°C 51.4°F10.8°C 78% Calm Calm 4.0 mph6.4 kmh 29.38 in994.9 mb 0.00 in0.0 mm 0.00 in0.0 mm 0.00 in0.0 mm
01:45 AM 58.0°F14.4°C 51.4°F10.8°C 79% 1.0 mph SW1.6 kmh SW -- 29.38 in994.9 mb 0.00 in0.0 mm 0.00 in0.0 mm 0.00 in0.0 mm
01:50 AM 57.9°F14.4°C 51.8°F11.0°C 80% 4.0 mph SSW6.4 kmh SSW -- 29.38 in994.9 mb 0.00 in0.0 mm 0.00 in0.0 mm 0.00 in0.0 mm
01:55 AM 57.9°F14.4°C 51.8°F11.0°C 80% 3.0 mph SW4.8 kmh SW -- 29.39 in995.3 mb 0.00 in0.0 mm 0.00 in0.0 mm 0.00 in0.0 mm
02:00 AM 57.7°F14.3°C 52.0°F11.1°C 81% 4.0 mph S6.4 kmh S -- 29.39 in995.3 mb 0.00 in0.0 mm 0.00 in0.0 mm 0.00 in0.0 mm
02:05 AM 57.6°F14.2°C 51.8°F11.0°C 81% 2.0 mph SE3.2 kmh SE 8.0 mph12.9 kmh 29.39 in995.3 mb 0.00 in0.0 mm 0.00 in0.0 mm 0.00 in0.0 mm
02:10 AM 57.3°F14.1°C 52.0°F11.1°C 82% Calm Calm -- 29.39 in995.3 mb 0.00 in0.0 mm 0.00 in0.0 mm 0.00 in0.0 mm
02:15 AM 57.0°F13.9°C 52.2°F11.2°C 84% Calm Calm -- 29.38 in994.9 mb 0.00 in0.0 mm 0.00 in0.0 mm 0.00 in0.0 mm
02:20 AM 56.7°F13.7°C 51.8°F11.0°C 84% 2.0 mph SE3.2 kmh SE -- 29.38 in994.9 mb 0.00 in0.0 mm 0.00 in0.0 mm 0.00 in0.0 mm
02:25 AM 56.3°F13.5°C 51.8°F11.0°C 85% Calm Calm -- 29.38 in994.9 mb 0.00 in0.0 mm 0.00 in0.0 mm 0.00 in0.0 mm
02:30 AM 56.0°F13.3°C 51.8°F11.0°C 86% Calm Calm 7.0 mph11.3 kmh 29.38 in994.9 mb 0.00 in0.0 mm 0.00 in0.0 mm 0.00 in0.0 mm
02:35 AM 56.0°F13.3°C 51.8°F11.0°C 86% 1.0 mph S1.6 kmh S -- 29.39 in995.3 mb 0.00 in0.0 mm 0.00 in0.0 mm 0.00 in0.0 mm
02:40 AM 55.8°F13.2°C 52.0°F11.1°C 87% 8.0 mph SE12.9 kmh SE -- 29.39 in995.3 mb 0.00 in0.0 mm 0.00 in0.0 mm 0.00 in0.0 mm
02:45 AM 55.6°F13.1°C 51.8°F11.0°C 87% 1.0 mph SE1.6 kmh SE -- 29.39 in995.3 mb 0.00 in0.0 mm 0.00 in0.0 mm 0.00 in0.0 mm
02:50 AM 55.4°F13.0°C 52.0°F11.1°C 88% 4.0 mph ESE6.4 kmh ESE -- 29.39 in995.3 mb 0.00 in0.0 mm 0.00 in0.0 mm 0.00 in0.0 mm
02:55 AM 55.3°F12.9°C 51.8°F11.0°C 88% Calm Calm 6.0 mph9.7 kmh 29.39 in995.3 mb 0.00 in0.0 mm 0.00 in0.0 mm 0.00 in0.0 mm
03:00 AM 55.1°F12.8°C 51.6°F10.9°C 88% 3.0 mph E4.8 kmh E -- 29.39 in995.3 mb 0.00 in0.0 mm 0.00 in0.0 mm 0.00 in0.0 mm
03:05 AM 55.0°F12.8°C 51.8°F11.0°C 89% 1.0 mph NE1.6 kmh NE -- 29.39 in995.3 mb 0.01 in0.3 mm 0.12 in3.0 mm 0.01 in0.3 mm
03:10 AM 54.9°F12.7°C 51.6°F10.9°C 89% Calm Calm -- 29.39 in995.3 mb 0.01 in0.3 mm 0.00 in0.0 mm 0.01 in0.3 mm
03:15 AM 54.8°F12.7°C 51.6°F10.9°C 89% 2.0 mph NE3.2 kmh NE -- 29.39 in995.3 mb 0.01 in0.3 mm 0.00 in0.0 mm 0.01 in0.3 mm
03:20 AM 54.7°F12.6°C 51.8°F11.0°C 90% 1.0 mph NE1.6 kmh NE 3.0 mph4.8 kmh 29.39 in995.3 mb 0.01 in0.3 mm 0.00 in0.0 mm 0.01 in0.3 mm
03:25 AM 54.5°F12.5°C 51.6°F10.9°C 90% Calm Calm -- 29.39 in995.3 mb 0.01 in0.3 mm 0.00 in0.0 mm 0.01 in0.3 mm
03:30 AM 54.4°F12.4°C 51.4°F10.8°C 90% 2.0 mph SE3.2 kmh SE -- 29.39 in995.3 mb 0.02 in0.5 mm 0.12 in3.0 mm 0.02 in0.5 mm
03:35 AM 54.3°F12.4°C 51.8°F11.0°C 91% 2.0 mph N3.2 kmh N -- 29.39 in995.3 mb 0.02 in0.5 mm 0.00 in0.0 mm 0.02 in0.5 mm
03:40 AM 54.1°F12.3°C 51.6°F10.9°C 91% 3.0 mph E4.8 kmh E -- 29.39 in995.3 mb 0.02 in0.5 mm 0.00 in0.0 mm 0.02 in0.5 mm
03:45 AM 54.0°F12.2°C 51.4°F10.8°C 91% 2.0 mph ENE3.2 kmh ENE 5.0 mph8.0 kmh 29.39 in995.3 mb 0.02 in0.5 mm 0.00 in0.0 mm 0.02 in0.5 mm
03:50 AM 54.0°F12.2°C 51.6°F10.9°C 92% 1.0 mph NE1.6 kmh NE -- 29.39 in995.3 mb 0.02 in0.5 mm 0.00 in0.0 mm 0.02 in0.5 mm
03:55 AM 53.9°F12.2°C 51.6°F10.9°C 92% Calm Calm -- 29.39 in995.3 mb 0.03 in0.8 mm 0.12 in3.0 mm 0.03 in0.8 mm
04:00 AM 53.8°F12.1°C 51.4°F10.8°C 92% 2.0 mph NE3.2 kmh NE -- 29.38 in994.9 mb 0.03 in0.8 mm 0.00 in0.0 mm 0.03 in0.8 mm
04:05 AM 53.8°F12.1°C 51.4°F10.8°C 92% Calm Calm -- 29.38 in994.9 mb 0.02 in0.5 mm 0.00 in0.0 mm 0.03 in0.8 mm
04:10 AM 53.7°F12.1°C 51.4°F10.8°C 92% Calm Calm 4.0 mph6.4 kmh 29.38 in994.9 mb 0.02 in0.5 mm 0.00 in0.0 mm 0.03 in0.8 mm
04:15 AM 53.6°F12.0°C 51.6°F10.9°C 93% 2.0 mph NE3.2 kmh NE -- 29.38 in994.9 mb 0.02 in0.5 mm 0.00 in0.0 mm 0.03 in0.8 mm
04:20 AM 53.5°F11.9°C 51.4°F10.8°C 93% Calm Calm -- 29.38 in994.9 mb 0.02 in0.5 mm 0.00 in0.0 mm 0.03 in0.8 mm
04:25 AM 53.3°F11.8°C 51.3°F10.7°C 93% 2.0 mph NE3.2 kmh NE -- 29.38 in994.9 mb 0.02 in0.5 mm 0.00 in0.0 mm 0.03 in0.8 mm
04:30 AM 53.2°F11.8°C 51.3°F10.7°C 93% 1.0 mph NE1.6 kmh NE -- 29.38 in994.9 mb 0.02 in0.5 mm 0.00 in0.0 mm 0.03 in0.8 mm
04:35 AM 53.2°F11.8°C 51.3°F10.7°C 93% Calm Calm 3.0 mph4.8 kmh 29.38 in994.9 mb 0.02 in0.5 mm 0.00 in0.0 mm 0.03 in0.8 mm
04:40 AM 53.1°F11.7°C 51.1°F10.6°C 93% Calm Calm -- 29.38 in994.9 mb 0.02 in0.5 mm 0.00 in0.0 mm 0.03 in0.8 mm
04:45 AM 53.2°F11.8°C 51.6°F10.9°C 94% Calm Calm -- 29.38 in994.9 mb 0.01 in0.3 mm 0.00 in0.0 mm 0.03 in0.8 mm
04:50 AM 53.2°F11.8°C 51.6°F10.9°C 94% Calm Calm -- 29.38 in994.9 mb 0.01 in0.3 mm 0.00 in0.0 mm 0.03 in0.8 mm
04:55 AM 53.2°F11.8°C 51.6°F10.9°C 94% Calm Calm -- 29.38 in994.9 mb 0.00 in0.0 mm 0.00 in0.0 mm 0.03 in0.8 mm
05:00 AM 53.2°F11.8°C 51.6°F10.9°C 94% 3.0 mph NE4.8 kmh NE 3.0 mph4.8 kmh 29.38 in994.9 mb 0.00 in0.0 mm 0.00 in0.0 mm 0.03 in0.8 mm
05:05 AM 53.3°F11.8°C 51.6°F10.9°C 94% 2.0 mph NE3.2 kmh NE -- 29.38 in994.9 mb 0.00 in0.0 mm 0.00 in0.0 mm 0.03 in0.8 mm
05:10 AM 53.4°F11.9°C 51.8°F11.0°C 94% 2.0 mph NE3.2 kmh NE -- 29.38 in994.9 mb 0.00 in0.0 mm 0.00 in0.0 mm 0.03 in0.8 mm
05:15 AM 53.5°F11.9°C 51.8°F11.0°C 94% 2.0 mph NE3.2 kmh NE -- 29.38 in994.9 mb 0.00 in0.0 mm 0.00 in0.0 mm 0.03 in0.8 mm
05:20 AM 53.4°F11.9°C 51.8°F11.0°C 94% 4.0 mph ENE6.4 kmh ENE -- 29.38 in994.9 mb 0.00 in0.0 mm 0.00 in0.0 mm 0.03 in0.8 mm
05:25 AM 53.4°F11.9°C 51.8°F11.0°C 94% 5.0 mph NE8.0 kmh NE 6.0 mph9.7 kmh 29.38 in994.9 mb 0.00 in0.0 mm 0.00 in0.0 mm 0.03 in0.8 mm
05:30 AM 53.5°F11.9°C 51.8°F11.0°C 94% 1.0 mph E1.6 kmh E -- 29.37 in994.6 mb 0.00 in0.0 mm 0.00 in0.0 mm 0.03 in0.8 mm
05:35 AM 53.5°F11.9°C 51.8°F11.0°C 94% 3.0 mph ENE4.8 kmh ENE -- 29.38 in994.9 mb 0.00 in0.0 mm 0.00 in0.0 mm 0.03 in0.8 mm
05:40 AM 53.4°F11.9°C 51.8°F11.0°C 94% Calm Calm -- 29.38 in994.9 mb 0.00 in0.0 mm 0.00 in0.0 mm 0.03 in0.8 mm
05:45 AM 53.4°F11.9°C 51.8°F11.0°C 94% 2.0 mph SE3.2 kmh SE -- 29.38 in994.9 mb 0.00 in0.0 mm 0.00 in0.0 mm 0.03 in0.8 mm
05:50 AM 53.3°F11.8°C 51.6°F10.9°C 94% 2.0 mph SE3.2 kmh SE 8.0 mph12.9 kmh 29.38 in994.9 mb 0.00 in0.0 mm 0.00 in0.0 mm 0.03 in0.8 mm
05:55 AM 53.3°F11.8°C 51.6°F10.9°C 94% 2.0 mph ESE3.2 kmh ESE -- 29.37 in994.6 mb 0.00 in0.0 mm 0.00 in0.0 mm 0.03 in0.8 mm
06:00 AM 53.4°F11.9°C 51.8°F11.0°C 94% 4.0 mph ENE6.4 kmh ENE -- 29.37 in994.6 mb 0.00 in0.0 mm 0.00 in0.0 mm 0.03 in0.8 mm
06:05 AM 53.5°F11.9°C 51.8°F11.0°C 94% 4.0 mph ENE6.4 kmh ENE -- 29.37 in994.6 mb 0.00 in0.0 mm 0.00 in0.0 mm 0.03 in0.8 mm
06:10 AM 53.6°F12.0°C 52.0°F11.1°C 94% Calm Calm -- 29.37 in994.6 mb 0.00 in0.0 mm 0.00 in0.0 mm 0.03 in0.8 mm
06:15 AM 53.7°F12.1°C 52.2°F11.2°C 94% 5.0 mph ENE8.0 kmh ENE 7.0 mph11.3 kmh 29.38 in994.9 mb 0.00 in0.0 mm 0.00 in0.0 mm 0.03 in0.8 mm
06:20 AM 53.8°F12.1°C 51.8°F11.0°C 93% 1.0 mph SSE1.6 kmh SSE -- 29.37 in994.6 mb 0.00 in0.0 mm 0.00 in0.0 mm 0.03 in0.8 mm
06:25 AM 53.8°F12.1°C 51.8°F11.0°C 93% 3.0 mph ENE4.8 kmh ENE -- 29.38 in994.9 mb 0.00 in0.0 mm 0.00 in0.0 mm 0.03 in0.8 mm
06:30 AM 53.8°F12.1°C 51.8°F11.0°C 93% 5.0 mph SE8.0 kmh SE -- 29.38 in994.9 mb 0.00 in0.0 mm 0.00 in0.0 mm 0.03 in0.8 mm
06:35 AM 53.8°F12.1°C 51.8°F11.0°C 93% Calm Calm -- 29.38 in994.9 mb 0.00 in0.0 mm 0.00 in0.0 mm 0.03 in0.8 mm
06:40 AM 53.8°F12.1°C 51.8°F11.0°C 93% 4.0 mph SW6.4 kmh SW 6.0 mph9.7 kmh 29.37 in994.6 mb 0.00 in0.0 mm 0.00 in0.0 mm 0.03 in0.8 mm
06:45 AM 53.7°F12.1°C 51.8°F11.0°C 93% 1.0 mph S1.6 kmh S -- 29.38 in994.9 mb 0.00 in0.0 mm 0.00 in0.0 mm 0.03 in0.8 mm
06:50 AM 53.7°F12.1°C 51.8°F11.0°C 93% Calm Calm -- 29.38 in994.9 mb 0.00 in0.0 mm 0.00 in0.0 mm 0.03 in0.8 mm
06:55 AM 53.7°F12.1°C 51.8°F11.0°C 93% 1.0 mph S1.6 kmh S -- 29.38 in994.9 mb 0.00 in0.0 mm 0.00 in0.0 mm 0.03 in0.8 mm
07:00 AM 53.8°F12.1°C 51.8°F11.0°C 93% 2.0 mph S3.2 kmh S -- 29.38 in994.9 mb 0.00 in0.0 mm 0.00 in0.0 mm 0.03 in0.8 mm
07:05 AM 53.8°F12.1°C 51.8°F11.0°C 93% 5.0 mph S8.0 kmh S 3.0 mph4.8 kmh 29.38 in994.9 mb 0.00 in0.0 mm 0.00 in0.0 mm 0.03 in0.8 mm
07:10 AM 53.9°F12.2°C 52.0°F11.1°C 93% 4.0 mph SSE6.4 kmh SSE -- 29.38 in994.9 mb 0.00 in0.0 mm 0.00 in0.0 mm 0.03 in0.8 mm
07:15 AM 54.0°F12.2°C 52.0°F11.1°C 93% 4.0 mph SSE6.4 kmh SSE -- 29.38 in994.9 mb 0.00 in0.0 mm 0.00 in0.0 mm 0.03 in0.8 mm
07:20 AM 54.1°F12.3°C 52.2°F11.2°C 93% 4.0 mph SSE6.4 kmh SSE -- 29.38 in994.9 mb 0.00 in0.0 mm 0.00 in0.0 mm 0.03 in0.8 mm
07:25 AM 54.0°F12.2°C 52.0°F11.1°C 93% 4.0 mph SSE6.4 kmh SSE -- 29.38 in994.9 mb 0.00 in0.0 mm 0.00 in0.0 mm 0.03 in0.8 mm
07:30 AM 54.1°F12.3°C 52.2°F11.2°C 93% 6.0 mph SE9.7 kmh SE 5.0 mph8.0 kmh 29.37 in994.6 mb 0.00 in0.0 mm 0.00 in0.0 mm 0.03 in0.8 mm
07:35 AM 54.1°F12.3°C 52.2°F11.2°C 93% 1.0 mph SSW1.6 kmh SSW -- 29.38 in994.9 mb 0.00 in0.0 mm 0.00 in0.0 mm 0.03 in0.8 mm
07:40 AM 54.1°F12.3°C 51.8°F11.0°C 92% 4.0 mph SE6.4 kmh SE -- 29.38 in994.9 mb 0.00 in0.0 mm 0.00 in0.0 mm 0.03 in0.8 mm
07:45 AM 54.2°F12.3°C 51.8°F11.0°C 92% 5.0 mph SW8.0 kmh SW -- 29.38 in994.9 mb 0.00 in0.0 mm 0.00 in0.0 mm 0.03 in0.8 mm
07:50 AM 54.2°F12.3°C 51.8°F11.0°C 92% Calm Calm -- 29.38 in994.9 mb 0.00 in0.0 mm 0.00 in0.0 mm 0.03 in0.8 mm
07:55 AM 54.2°F12.3°C 51.8°F11.0°C 92% 2.0 mph S3.2 kmh S 6.0 mph9.7 kmh 29.37 in994.6 mb 0.00 in0.0 mm 0.00 in0.0 mm 0.03 in0.8 mm
08:00 AM 54.3°F12.4°C 52.0°F11.1°C 92% 2.0 mph SSW3.2 kmh SSW -- 29.38 in994.9 mb 0.00 in0.0 mm 0.00 in0.0 mm 0.03 in0.8 mm
08:05 AM 54.3°F12.4°C 52.0°F11.1°C 92% 5.0 mph S8.0 kmh S -- 29.38 in994.9 mb 0.00 in0.0 mm 0.00 in0.0 mm 0.03 in0.8 mm
08:10 AM 54.4°F12.4°C 52.0°F11.1°C 92% 2.0 mph S3.2 kmh S -- 29.38 in994.9 mb 0.00 in0.0 mm 0.00 in0.0 mm 0.03 in0.8 mm
08:15 AM 54.4°F12.4°C 52.0°F11.1°C 92% 5.0 mph SE8.0 kmh SE -- 29.38 in994.9 mb 0.00 in0.0 mm 0.00 in0.0 mm 0.03 in0.8 mm
08:20 AM 54.5°F12.5°C 52.2°F11.2°C 92% 4.0 mph WSW6.4 kmh WSW 10.0 mph16.1 kmh 29.38 in994.9 mb 0.00 in0.0 mm 0.00 in0.0 mm 0.03 in0.8 mm
08:25 AM 54.4°F12.4°C 52.0°F11.1°C 92% Calm Calm -- 29.38 in994.9 mb 0.00 in0.0 mm 0.00 in0.0 mm 0.03 in0.8 mm
08:30 AM 54.5°F12.5°C 52.0°F11.1°C 91% 5.0 mph SE8.0 kmh SE -- 29.38 in994.9 mb 0.00 in0.0 mm 0.00 in0.0 mm 0.03 in0.8 mm
08:35 AM 54.6°F12.6°C 52.2°F11.2°C 91% 4.0 mph SSE6.4 kmh SSE -- 29.38 in994.9 mb 0.00 in0.0 mm 0.00 in0.0 mm 0.03 in0.8 mm
08:40 AM 54.7°F12.6°C 51.4°F10.8°C 89% 4.0 mph S6.4 kmh S -- 29.38 in994.9 mb 0.00 in0.0 mm 0.00 in0.0 mm 0.03 in0.8 mm
08:45 AM 55.1°F12.8°C 51.3°F10.7°C 87% 2.0 mph SSW3.2 kmh SSW 9.0 mph14.5 kmh 29.37 in994.6 mb 0.00 in0.0 mm 0.00 in0.0 mm 0.03 in0.8 mm
08:50 AM 55.4°F13.0°C 51.3°F10.7°C 86% 1.0 mph S1.6 kmh S -- 29.38 in994.9 mb 0.00 in0.0 mm 0.00 in0.0 mm 0.03 in0.8 mm
08:55 AM 55.5°F13.1°C 51.4°F10.8°C 86% 1.0 mph ESE1.6 kmh ESE -- 29.38 in994.9 mb 0.00 in0.0 mm 0.00 in0.0 mm 0.03 in0.8 mm
09:00 AM 55.5°F13.1°C 50.9°F10.5°C 84% 3.0 mph SSW4.8 kmh SSW -- 29.38 in994.9 mb 0.00 in0.0 mm 0.00 in0.0 mm 0.03 in0.8 mm
09:05 AM 55.7°F13.2°C 50.7°F10.4°C 83% 7.0 mph SSE11.3 kmh SSE -- 29.38 in994.9 mb 0.00 in0.0 mm 0.00 in0.0 mm 0.03 in0.8 mm
09:10 AM 55.9°F13.3°C 50.2°F10.1°C 81% 1.0 mph SW1.6 kmh SW 10.0 mph16.1 kmh 29.38 in994.9 mb 0.00 in0.0 mm 0.00 in0.0 mm 0.03 in0.8 mm
09:15 AM 56.1°F13.4°C 50.0°F10.0°C 80% Calm Calm -- 29.38 in994.9 mb 0.00 in0.0 mm 0.00 in0.0 mm 0.03 in0.8 mm
09:20 AM 56.2°F13.4°C 50.0°F10.0°C 80% 4.0 mph SW6.4 kmh SW -- 29.38 in994.9 mb 0.00 in0.0 mm 0.00 in0.0 mm 0.03 in0.8 mm
09:25 AM 56.4°F13.6°C 49.6°F9.8°C 78% 3.0 mph S4.8 kmh S -- 29.38 in994.9 mb 0.00 in0.0 mm 0.00 in0.0 mm 0.03 in0.8 mm
09:30 AM 56.5°F13.6°C 49.6°F9.8°C 78% Calm Calm -- 29.38 in994.9 mb 0.00 in0.0 mm 0.00 in0.0 mm 0.03 in0.8 mm
09:35 AM 56.5°F13.6°C 50.0°F10.0°C 79% Calm Calm 6.0 mph9.7 kmh 29.37 in994.6 mb 0.00 in0.0 mm 0.00 in0.0 mm 0.03 in0.8 mm
09:40 AM 56.6°F13.7°C 50.2°F10.1°C 79% Calm Calm -- 29.37 in994.6 mb 0.00 in0.0 mm 0.00 in0.0 mm 0.03 in0.8 mm
09:45 AM 56.6°F13.7°C 50.5°F10.3°C 80% Calm Calm -- 29.37 in994.6 mb 0.00 in0.0 mm 0.00 in0.0 mm 0.03 in0.8 mm
09:50 AM 56.4°F13.6°C 50.7°F10.4°C 81% Calm Calm -- 29.38 in994.9 mb 0.00 in0.0 mm 0.00 in0.0 mm 0.03 in0.8 mm
09:55 AM 56.1°F13.4°C 50.4°F10.2°C 81% 2.0 mph ESE3.2 kmh ESE -- 29.37 in994.6 mb 0.00 in0.0 mm 0.00 in0.0 mm 0.03 in0.8 mm
10:00 AM 56.1°F13.4°C 50.0°F10.0°C 80% 6.0 mph SSW9.7 kmh SSW 8.0 mph12.9 kmh 29.37 in994.6 mb 0.00 in0.0 mm 0.00 in0.0 mm 0.03 in0.8 mm
10:05 AM 56.3°F13.5°C 49.8°F9.9°C 79% 6.0 mph SW9.7 kmh SW -- 29.37 in994.6 mb 0.00 in0.0 mm 0.00 in0.0 mm 0.03 in0.8 mm
10:10 AM 56.5°F13.6°C 49.3°F9.6°C 77% 6.0 mph ESE9.7 kmh ESE -- 29.37 in994.6 mb 0.00 in0.0 mm 0.00 in0.0 mm 0.03 in0.8 mm
10:15 AM 56.7°F13.7°C 49.5°F9.7°C 77% 4.0 mph SW6.4 kmh SW -- 29.37 in994.6 mb 0.00 in0.0 mm 0.00 in0.0 mm 0.03 in0.8 mm
10:20 AM 56.7°F13.7°C 49.1°F9.5°C 76% 4.0 mph WSW6.4 kmh WSW -- 29.37 in994.6 mb 0.00 in0.0 mm 0.00 in0.0 mm 0.03 in0.8 mm
10:25 AM 56.8°F13.8°C 49.6°F9.8°C 77% 8.0 mph SW12.9 kmh SW 13.0 mph20.9 kmh 29.37 in994.6 mb 0.00 in0.0 mm 0.00 in0.0 mm 0.03 in0.8 mm
10:30 AM 56.8°F13.8°C 49.3°F9.6°C 76% 7.0 mph SW11.3 kmh SW -- 29.37 in994.6 mb 0.00 in0.0 mm 0.00 in0.0 mm 0.03 in0.8 mm
10:35 AM 56.9°F13.8°C 49.3°F9.6°C 76% 6.0 mph WSW9.7 kmh WSW -- 29.37 in994.6 mb 0.00 in0.0 mm 0.00 in0.0 mm 0.03 in0.8 mm
10:40 AM 56.9°F13.8°C 49.3°F9.6°C 76% 5.0 mph SW8.0 kmh SW -- 29.37 in994.6 mb 0.00 in0.0 mm 0.00 in0.0 mm 0.03 in0.8 mm
10:45 AM 57.0°F13.9°C 49.1°F9.5°C 75% 5.0 mph SW8.0 kmh SW -- 29.37 in994.6 mb 0.00 in0.0 mm 0.00 in0.0 mm 0.03 in0.8 mm
10:50 AM 57.0°F13.9°C 48.7°F9.3°C 74% 8.0 mph SW12.9 kmh SW 23.0 mph37.0 kmh 29.37 in994.6 mb 0.00 in0.0 mm 0.00 in0.0 mm 0.03 in0.8 mm
10:55 AM 57.1°F13.9°C 48.7°F9.3°C 74% 8.0 mph SSW12.9 kmh SSW -- 29.37 in994.6 mb 0.00 in0.0 mm 0.00 in0.0 mm 0.03 in0.8 mm
11:00 AM 57.2°F14.0°C 48.2°F9.0°C 72% 10.0 mph SW16.1 kmh SW -- 29.37 in994.6 mb 0.00 in0.0 mm 0.00 in0.0 mm 0.03 in0.8 mm
11:05 AM 57.3°F14.1°C 48.4°F9.1°C 72% 7.0 mph S11.3 kmh S -- 29.37 in994.6 mb 0.00 in0.0 mm 0.00 in0.0 mm 0.03 in0.8 mm
11:10 AM 57.4°F14.1°C 48.4°F9.1°C 72% 9.0 mph SW14.5 kmh SW -- 29.37 in994.6 mb 0.00 in0.0 mm 0.00 in0.0 mm 0.03 in0.8 mm
11:15 AM 57.5°F14.2°C 48.6°F9.2°C 72% 9.0 mph WSW14.5 kmh WSW 17.0 mph27.4 kmh 29.37 in994.6 mb 0.00 in0.0 mm 0.00 in0.0 mm 0.03 in0.8 mm
11:20 AM 57.5°F14.2°C 48.9°F9.4°C 73% 3.0 mph SW4.8 kmh SW -- 29.37 in994.6 mb 0.00 in0.0 mm 0.00 in0.0 mm 0.03 in0.8 mm
11:25 AM 57.5°F14.2°C 48.6°F9.2°C 72% 5.0 mph SW8.0 kmh SW -- 29.37 in994.6 mb 0.00 in0.0 mm 0.00 in0.0 mm 0.03 in0.8 mm
11:30 AM 57.6°F14.2°C 48.6°F9.2°C 72% 12.0 mph SW19.3 kmh SW -- 29.38 in994.9 mb 0.00 in0.0 mm 0.00 in0.0 mm 0.03 in0.8 mm
11:35 AM 57.5°F14.2°C 48.6°F9.2°C 72% 11.0 mph SSW17.7 kmh SSW -- 29.37 in994.6 mb 0.00 in0.0 mm 0.00 in0.0 mm 0.03 in0.8 mm
11:40 AM 57.5°F14.2°C 48.6°F9.2°C 72% 12.0 mph SW19.3 kmh SW 24.0 mph38.6 kmh 29.37 in994.6 mb 0.00 in0.0 mm 0.00 in0.0 mm 0.03 in0.8 mm
11:45 AM 57.5°F14.2°C 48.9°F9.4°C 73% 12.0 mph SSW19.3 kmh SSW -- 29.37 in994.6 mb 0.00 in0.0 mm 0.00 in0.0 mm 0.03 in0.8 mm
11:50 AM 57.5°F14.2°C 48.6°F9.2°C 72% 8.0 mph SSW12.9 kmh SSW -- 29.37 in994.6 mb 0.00 in0.0 mm 0.00 in0.0 mm 0.03 in0.8 mm
11:55 AM 57.5°F14.2°C 48.6°F9.2°C 72% 5.0 mph SSW8.0 kmh SSW -- 29.37 in994.6 mb 0.00 in0.0 mm 0.00 in0.0 mm 0.03 in0.8 mm
12:00 PM 57.6°F14.2°C 48.2°F9.0°C 71% 4.0 mph SSW6.4 kmh SSW -- 29.37 in994.6 mb 0.00 in0.0 mm 0.00 in0.0 mm 0.03 in0.8 mm
12:05 PM 57.7°F14.3°C 48.4°F9.1°C 71% 6.0 mph SW9.7 kmh SW 15.0 mph24.1 kmh 29.37 in994.6 mb 0.00 in0.0 mm 0.00 in0.0 mm 0.03 in0.8 mm
12:10 PM 57.7°F14.3°C 48.4°F9.1°C 71% 9.0 mph S14.5 kmh S -- 29.37 in994.6 mb 0.00 in0.0 mm 0.00 in0.0 mm 0.03 in0.8 mm
12:15 PM 57.7°F14.3°C 48.4°F9.1°C 71% 4.0 mph S6.4 kmh S -- 29.37 in994.6 mb 0.00 in0.0 mm 0.00 in0.0 mm 0.03 in0.8 mm
12:20 PM 57.6°F14.2°C 48.2°F9.0°C 71% 9.0 mph S14.5 kmh S -- 29.37 in994.6 mb 0.00 in0.0 mm 0.00 in0.0 mm 0.03 in0.8 mm
12:25 PM 57.7°F14.3°C 48.4°F9.1°C 71% 4.0 mph S6.4 kmh S -- 29.37 in994.6 mb 0.00 in0.0 mm 0.00 in0.0 mm 0.03 in0.8 mm
12:30 PM 57.8°F14.3°C 48.4°F9.1°C 71% 7.0 mph S11.3 kmh S 16.0 mph25.7 kmh 29.38 in994.9 mb 0.00 in0.0 mm 0.00 in0.0 mm 0.03 in0.8 mm
12:35 PM 58.0°F14.4°C 48.6°F9.2°C 71% 6.0 mph SW9.7 kmh SW -- 29.38 in994.9 mb 0.00 in0.0 mm 0.00 in0.0 mm 0.03 in0.8 mm
12:40 PM 58.5°F14.7°C 48.7°F9.3°C 70% 7.0 mph SSW11.3 kmh SSW -- 29.37 in994.6 mb 0.00 in0.0 mm 0.00 in0.0 mm 0.03 in0.8 mm
12:45 PM 58.5°F14.7°C 48.4°F9.1°C 69% 8.0 mph SSW12.9 kmh SSW -- 29.37 in994.6 mb 0.00 in0.0 mm 0.00 in0.0 mm 0.03 in0.8 mm
12:50 PM 58.4°F14.7°C 48.4°F9.1°C 69% 4.0 mph SSW6.4 kmh SSW -- 29.37 in994.6 mb 0.00 in0.0 mm 0.00 in0.0 mm 0.03 in0.8 mm
12:55 PM 58.3°F14.6°C 48.6°F9.2°C 70% 5.0 mph SSW8.0 kmh SSW 15.0 mph24.1 kmh 29.38 in994.9 mb 0.00 in0.0 mm 0.00 in0.0 mm 0.03 in0.8 mm
01:00 PM 58.2°F14.6°C 48.9°F9.4°C 71% 10.0 mph S16.1 kmh S -- 29.38 in994.9 mb 0.00 in0.0 mm 0.00 in0.0 mm 0.03 in0.8 mm
01:05 PM 58.1°F14.5°C 48.7°F9.3°C 71% 4.0 mph SSW6.4 kmh SSW -- 29.38 in994.9 mb 0.00 in0.0 mm 0.00 in0.0 mm 0.03 in0.8 mm
01:10 PM 57.9°F14.4°C 49.3°F9.6°C 73% 11.0 mph SW17.7 kmh SW -- 29.38 in994.9 mb 0.00 in0.0 mm 0.00 in0.0 mm 0.03 in0.8 mm
01:15 PM 57.4°F14.1°C 49.1°F9.5°C 74% 9.0 mph SE14.5 kmh SE -- 29.38 in994.9 mb 0.00 in0.0 mm 0.00 in0.0 mm 0.03 in0.8 mm
01:20 PM 57.2°F14.0°C 49.3°F9.6°C 75% 10.0 mph S16.1 kmh S 13.0 mph20.9 kmh 29.38 in994.9 mb 0.00 in0.0 mm 0.00 in0.0 mm 0.03 in0.8 mm
01:25 PM 57.2°F14.0°C 49.3°F9.6°C 75% 4.0 mph SSW6.4 kmh SSW -- 29.38 in994.9 mb 0.00 in0.0 mm 0.00 in0.0 mm 0.03 in0.8 mm
01:30 PM 57.5°F14.2°C 49.6°F9.8°C 75% 4.0 mph SSW6.4 kmh SSW -- 29.38 in994.9 mb 0.00 in0.0 mm 0.00 in0.0 mm 0.03 in0.8 mm
01:35 PM 57.8°F14.3°C 49.5°F9.7°C 74% 4.0 mph SW6.4 kmh SW -- 29.38 in994.9 mb 0.00 in0.0 mm 0.00 in0.0 mm 0.03 in0.8 mm
01:40 PM 57.9°F14.4°C 49.6°F9.8°C 74% 7.0 mph SW11.3 kmh SW -- 29.38 in994.9 mb 0.00 in0.0 mm 0.00 in0.0 mm 0.03 in0.8 mm
01:45 PM 57.9°F14.4°C 49.6°F9.8°C 74% 7.0 mph SSE11.3 kmh SSE 16.0 mph25.7 kmh 29.38 in994.9 mb 0.00 in0.0 mm 0.00 in0.0 mm 0.03 in0.8 mm
01:50 PM 58.0°F14.4°C 49.6°F9.8°C 74% 13.0 mph S20.9 kmh S -- 29.38 in994.9 mb 0.00 in0.0 mm 0.00 in0.0 mm 0.03 in0.8 mm
01:55 PM 58.1°F14.5°C 49.8°F9.9°C 74% 8.0 mph SSW12.9 kmh SSW -- 29.38 in994.9 mb 0.00 in0.0 mm 0.00 in0.0 mm 0.03 in0.8 mm
02:00 PM 58.6°F14.8°C 50.0°F10.0°C 73% 5.0 mph SW8.0 kmh SW -- 29.38 in994.9 mb 0.00 in0.0 mm 0.00 in0.0 mm 0.03 in0.8 mm
02:05 PM 59.0°F15.0°C 50.7°F10.4°C 74% 6.0 mph SSW9.7 kmh SSW -- 29.38 in994.9 mb 0.00 in0.0 mm 0.00 in0.0 mm 0.03 in0.8 mm
02:10 PM 59.3°F15.2°C 49.6°F9.8°C 70% 12.0 mph WSW19.3 kmh WSW 20.0 mph32.2 kmh 29.38 in994.9 mb 0.00 in0.0 mm 0.00 in0.0 mm 0.03 in0.8 mm
02:15 PM 59.0°F15.0°C 48.0°F8.9°C 67% 9.0 mph SSW14.5 kmh SSW -- 29.39 in995.3 mb 0.00 in0.0 mm 0.00 in0.0 mm 0.03 in0.8 mm
02:20 PM 59.0°F15.0°C 47.7°F8.7°C 66% 16.0 mph SW25.7 kmh SW -- 29.39 in995.3 mb 0.00 in0.0 mm 0.00 in0.0 mm 0.03 in0.8 mm
02:25 PM 59.2°F15.1°C 47.5°F8.6°C 65% 14.0 mph WSW22.5 kmh WSW -- 29.38 in994.9 mb 0.00 in0.0 mm 0.00 in0.0 mm 0.03 in0.8 mm
02:30 PM 59.2°F15.1°C 46.9°F8.3°C 64% 15.0 mph SW24.1 kmh SW -- 29.38 in994.9 mb 0.00 in0.0 mm 0.00 in0.0 mm 0.03 in0.8 mm
02:35 PM 58.8°F14.9°C 46.2°F7.9°C 63% 12.0 mph S19.3 kmh S 27.0 mph43.5 kmh 29.38 in994.9 mb 0.00 in0.0 mm 0.00 in0.0 mm 0.03 in0.8 mm
02:40 PM 58.0°F14.4°C 45.0°F7.2°C 62% 17.0 mph SW27.4 kmh SW -- 29.39 in995.3 mb 0.00 in0.0 mm 0.00 in0.0 mm 0.03 in0.8 mm
02:45 PM 57.5°F14.2°C 45.1°F7.3°C 63% 4.0 mph SW6.4 kmh SW -- 29.39 in995.3 mb 0.00 in0.0 mm 0.00 in0.0 mm 0.03 in0.8 mm
02:50 PM 57.1°F13.9°C 45.0°F7.2°C 64% 14.0 mph S22.5 kmh S -- 29.39 in995.3 mb 0.00 in0.0 mm 0.00 in0.0 mm 0.03 in0.8 mm
02:55 PM 56.8°F13.8°C 44.4°F6.9°C 63% 9.0 mph SSW14.5 kmh SSW -- 29.39 in995.3 mb 0.00 in0.0 mm 0.00 in0.0 mm 0.03 in0.8 mm
03:00 PM 56.7°F13.7°C 44.2°F6.8°C 63% 9.0 mph S14.5 kmh S 20.0 mph32.2 kmh 29.40 in995.6 mb 0.00 in0.0 mm 0.00 in0.0 mm 0.03 in0.8 mm
03:05 PM 56.6°F13.7°C 44.2°F6.8°C 63% 10.0 mph SW16.1 kmh SW -- 29.40 in995.6 mb 0.00 in0.0 mm 0.00 in0.0 mm 0.03 in0.8 mm
03:10 PM 56.5°F13.6°C 44.1°F6.7°C 63% 13.0 mph SSW20.9 kmh SSW -- 29.40 in995.6 mb 0.00 in0.0 mm 0.00 in0.0 mm 0.03 in0.8 mm
03:15 PM 56.4°F13.6°C 44.1°F6.7°C 63% 8.0 mph SW12.9 kmh SW -- 29.40 in995.6 mb 0.00 in0.0 mm 0.00 in0.0 mm 0.03 in0.8 mm
03:20 PM 56.5°F13.6°C 44.4°F6.9°C 64% 5.0 mph SW8.0 kmh SW -- 29.40 in995.6 mb 0.00 in0.0 mm 0.00 in0.0 mm 0.03 in0.8 mm
03:25 PM 56.9°F13.8°C 44.4°F6.9°C 63% 10.0 mph SW16.1 kmh SW 14.0 mph22.5 kmh 29.40 in995.6 mb 0.00 in0.0 mm 0.00 in0.0 mm 0.03 in0.8 mm
03:30 PM 57.0°F13.9°C 45.0°F7.2°C 64% 3.0 mph SW4.8 kmh SW -- 29.41 in995.9 mb 0.00 in0.0 mm 0.00 in0.0 mm 0.03 in0.8 mm
03:35 PM 56.9°F13.8°C 44.4°F6.9°C 63% 1.0 mph SW1.6 kmh SW -- 29.41 in995.9 mb 0.00 in0.0 mm 0.00 in0.0 mm 0.03 in0.8 mm
03:40 PM 56.7°F13.7°C 44.2°F6.8°C 63% 4.0 mph SW6.4 kmh SW -- 29.41 in995.9 mb 0.00 in0.0 mm 0.00 in0.0 mm 0.03 in0.8 mm
03:45 PM 56.4°F13.6°C 44.4°F6.9°C 64% 14.0 mph SSW22.5 kmh SSW -- 29.41 in995.9 mb 0.00 in0.0 mm 0.00 in0.0 mm 0.03 in0.8 mm
03:50 PM 56.3°F13.5°C 43.9°F6.6°C 63% 12.0 mph S19.3 kmh S 17.0 mph27.4 kmh 29.41 in995.9 mb 0.00 in0.0 mm 0.00 in0.0 mm 0.03 in0.8 mm
03:55 PM 56.1°F13.4°C 44.6°F7.0°C 65% 7.0 mph SW11.3 kmh SW -- 29.41 in995.9 mb 0.00 in0.0 mm 0.00 in0.0 mm 0.03 in0.8 mm
04:00 PM 56.0°F13.3°C 44.8°F7.1°C 66% 5.0 mph WSW8.0 kmh WSW -- 29.42 in996.3 mb 0.00 in0.0 mm 0.00 in0.0 mm 0.03 in0.8 mm
04:05 PM 55.8°F13.2°C 45.0°F7.2°C 67% 7.0 mph SW11.3 kmh SW -- 29.42 in996.3 mb 0.00 in0.0 mm 0.00 in0.0 mm 0.03 in0.8 mm
04:10 PM 55.7°F13.2°C 45.0°F7.2°C 67% Calm Calm -- 29.43 in996.6 mb 0.00 in0.0 mm 0.00 in0.0 mm 0.03 in0.8 mm
04:15 PM 55.7°F13.2°C 45.7°F7.6°C 69% 2.0 mph N3.2 kmh N 10.0 mph16.1 kmh 29.43 in996.6 mb 0.00 in0.0 mm 0.00 in0.0 mm 0.03 in0.8 mm
04:20 PM 54.9°F12.7°C 46.4°F8.0°C 73% 2.0 mph NW3.2 kmh NW -- 29.43 in996.6 mb 0.00 in0.0 mm 0.00 in0.0 mm 0.03 in0.8 mm
04:25 PM 53.8°F12.1°C 46.8°F8.2°C 77% 5.0 mph W8.0 kmh W -- 29.43 in996.6 mb 0.00 in0.0 mm 0.00 in0.0 mm 0.03 in0.8 mm
04:30 PM 53.2°F11.8°C 47.3°F8.5°C 80% Calm Calm -- 29.44 in997.0 mb 0.00 in0.0 mm 0.00 in0.0 mm 0.03 in0.8 mm
04:35 PM 52.9°F11.6°C 47.5°F8.6°C 82% 4.0 mph W6.4 kmh W -- 29.43 in996.6 mb 0.00 in0.0 mm 0.00 in0.0 mm 0.03 in0.8 mm
04:40 PM 52.5°F11.4°C 47.5°F8.6°C 83% Calm Calm 7.0 mph11.3 kmh 29.43 in996.6 mb 0.00 in0.0 mm 0.00 in0.0 mm 0.03 in0.8 mm
04:45 PM 52.3°F11.3°C 47.7°F8.7°C 84% 2.0 mph S3.2 kmh S -- 29.43 in996.6 mb 0.00 in0.0 mm 0.00 in0.0 mm 0.03 in0.8 mm
04:50 PM 52.2°F11.2°C 47.5°F8.6°C 84% 1.0 mph SSW1.6 kmh SSW -- 29.43 in996.6 mb 0.00 in0.0 mm 0.00 in0.0 mm 0.03 in0.8 mm
04:55 PM 52.2°F11.2°C 47.5°F8.6°C 84% 5.0 mph WSW8.0 kmh WSW -- 29.44 in997.0 mb 0.00 in0.0 mm 0.00 in0.0 mm 0.03 in0.8 mm
05:00 PM 52.1°F11.2°C 47.5°F8.6°C 84% 4.0 mph SW6.4 kmh SW -- 29.43 in996.6 mb 0.00 in0.0 mm 0.00 in0.0 mm 0.03 in0.8 mm
05:05 PM 51.9°F11.1°C 47.7°F8.7°C 85% 4.0 mph SW6.4 kmh SW 9.0 mph14.5 kmh 29.43 in996.6 mb 0.00 in0.0 mm 0.00 in0.0 mm 0.03 in0.8 mm
05:10 PM 51.9°F11.1°C 47.7°F8.7°C 85% 5.0 mph SSW8.0 kmh SSW -- 29.43 in996.6 mb 0.00 in0.0 mm 0.00 in0.0 mm 0.03 in0.8 mm
05:15 PM 51.8°F11.0°C 47.5°F8.6°C 85% 3.0 mph SSW4.8 kmh SSW -- 29.44 in997.0 mb 0.00 in0.0 mm 0.00 in0.0 mm 0.03 in0.8 mm
05:20 PM 51.8°F11.0°C 47.5°F8.6°C 85% 1.0 mph SW1.6 kmh SW -- 29.44 in997.0 mb 0.00 in0.0 mm 0.00 in0.0 mm 0.03 in0.8 mm
05:25 PM 51.8°F11.0°C 47.1°F8.4°C 84% 8.0 mph SSW12.9 kmh SSW -- 29.44 in997.0 mb 0.00 in0.0 mm 0.00 in0.0 mm 0.03 in0.8 mm
05:30 PM 51.7°F10.9°C 46.9°F8.3°C 84% 1.0 mph SW1.6 kmh SW 8.0 mph12.9 kmh 29.44 in997.0 mb 0.00 in0.0 mm 0.00 in0.0 mm 0.03 in0.8 mm
05:35 PM 51.7°F10.9°C 46.9°F8.3°C 84% 5.0 mph SW8.0 kmh SW -- 29.44 in997.0 mb 0.00 in0.0 mm 0.00 in0.0 mm 0.03 in0.8 mm
05:40 PM 51.5°F10.8°C 47.1°F8.4°C 85% 4.0 mph SW6.4 kmh SW -- 29.45 in997.3 mb 0.00 in0.0 mm 0.00 in0.0 mm 0.03 in0.8 mm
05:45 PM 51.4°F10.8°C 47.1°F8.4°C 85% 4.0 mph SSW6.4 kmh SSW -- 29.45 in997.3 mb 0.00 in0.0 mm 0.00 in0.0 mm 0.03 in0.8 mm
05:50 PM 51.2°F10.7°C 46.9°F8.3°C 85% 5.0 mph W8.0 kmh W -- 29.45 in997.3 mb 0.00 in0.0 mm 0.00 in0.0 mm 0.03 in0.8 mm
05:55 PM 50.9°F10.5°C 46.9°F8.3°C 86% 7.0 mph SW11.3 kmh SW 9.0 mph14.5 kmh 29.45 in997.3 mb 0.00 in0.0 mm 0.00 in0.0 mm 0.03 in0.8 mm
06:00 PM 50.5°F10.3°C 46.8°F8.2°C 87% 2.0 mph SSW3.2 kmh SSW -- 29.45 in997.3 mb 0.01 in0.3 mm 0.01 in0.3 mm 0.04 in1.0 mm
06:05 PM 50.2°F10.1°C 46.4°F8.0°C 87% 3.0 mph S4.8 kmh S -- 29.45 in997.3 mb 0.01 in0.3 mm 0.00 in0.0 mm 0.04 in1.0 mm
06:10 PM 50.0°F10.0°C 46.2°F7.9°C 87% 1.0 mph SW1.6 kmh SW -- 29.45 in997.3 mb 0.01 in0.3 mm 0.00 in0.0 mm 0.04 in1.0 mm
06:15 PM 49.8°F9.9°C 46.0°F7.8°C 87% 2.0 mph W3.2 kmh W -- 29.45 in997.3 mb 0.01 in0.3 mm 0.00 in0.0 mm 0.04 in1.0 mm
06:20 PM 49.7°F9.8°C 45.9°F7.7°C 87% 1.0 mph SW1.6 kmh SW 8.0 mph12.9 kmh 29.45 in997.3 mb 0.02 in0.5 mm 0.12 in3.0 mm 0.05 in1.3 mm
06:25 PM 49.7°F9.8°C 46.2°F7.9°C 88% Calm Calm -- 29.46 in997.6 mb 0.02 in0.5 mm 0.00 in0.0 mm 0.05 in1.3 mm
06:30 PM 49.7°F9.8°C 46.2°F7.9°C 88% 1.0 mph SW1.6 kmh SW -- 29.45 in997.3 mb 0.02 in0.5 mm 0.00 in0.0 mm 0.05 in1.3 mm
06:35 PM 49.7°F9.8°C 46.2°F7.9°C 88% Calm Calm -- 29.45 in997.3 mb 0.02 in0.5 mm 0.00 in0.0 mm 0.05 in1.3 mm
06:40 PM 49.5°F9.7°C 46.0°F7.8°C 88% 3.0 mph SW4.8 kmh SW -- 29.45 in997.3 mb 0.02 in0.5 mm 0.00 in0.0 mm 0.05 in1.3 mm
06:45 PM 49.2°F9.6°C 46.2°F7.9°C 89% 1.0 mph SW1.6 kmh SW 3.0 mph4.8 kmh 29.45 in997.3 mb 0.02 in0.5 mm 0.00 in0.0 mm 0.05 in1.3 mm
06:50 PM 48.8°F9.3°C 45.7°F7.6°C 89% 1.0 mph SW1.6 kmh SW -- 29.45 in997.3 mb 0.02 in0.5 mm 0.00 in0.0 mm 0.05 in1.3 mm
06:55 PM 48.4°F9.1°C 45.5°F7.5°C 90% 3.0 mph SW4.8 kmh SW -- 29.45 in997.3 mb 0.02 in0.5 mm 0.00 in0.0 mm 0.05 in1.3 mm
07:00 PM 48.2°F9.0°C 45.3°F7.4°C 90% 1.0 mph SW1.6 kmh SW -- 29.45 in997.3 mb 0.01 in0.3 mm 0.00 in0.0 mm 0.05 in1.3 mm
07:05 PM 48.2°F9.0°C 45.7°F7.6°C 91% 4.0 mph SW6.4 kmh SW -- 29.45 in997.3 mb 0.01 in0.3 mm 0.00 in0.0 mm 0.05 in1.3 mm
07:10 PM 48.3°F9.1°C 45.9°F7.7°C 91% 4.0 mph SW6.4 kmh SW 6.0 mph9.7 kmh 29.45 in997.3 mb 0.01 in0.3 mm 0.00 in0.0 mm 0.05 in1.3 mm
07:15 PM 48.7°F9.3°C 45.9°F7.7°C 90% Calm Calm -- 29.45 in997.3 mb 0.01 in0.3 mm 0.00 in0.0 mm 0.05 in1.3 mm
07:20 PM 48.7°F9.3°C 45.9°F7.7°C 90% 2.0 mph SW3.2 kmh SW -- 29.45 in997.3 mb 0.00 in0.0 mm 0.00 in0.0 mm 0.05 in1.3 mm
07:25 PM 48.7°F9.3°C 45.9°F7.7°C 90% 1.0 mph SW1.6 kmh SW -- 29.45 in997.3 mb 0.00 in0.0 mm 0.00 in0.0 mm 0.05 in1.3 mm
07:30 PM 48.7°F9.3°C 45.9°F7.7°C 90% 1.0 mph SW1.6 kmh SW -- 29.45 in997.3 mb 0.00 in0.0 mm 0.00 in0.0 mm 0.05 in1.3 mm
07:35 PM 48.7°F9.3°C 45.9°F7.7°C 90% 1.0 mph SW1.6 kmh SW 4.0 mph6.4 kmh 29.45 in997.3 mb 0.00 in0.0 mm 0.00 in0.0 mm 0.05 in1.3 mm
07:40 PM 48.7°F9.3°C 45.9°F7.7°C 90% Calm Calm -- 29.46 in997.6 mb 0.00 in0.0 mm 0.00 in0.0 mm 0.05 in1.3 mm
07:45 PM 48.6°F9.2°C 46.0°F7.8°C 91% 2.0 mph SW3.2 kmh SW -- 29.45 in997.3 mb 0.01 in0.3 mm 0.12 in3.0 mm 0.06 in1.5 mm
07:50 PM 48.5°F9.2°C 46.0°F7.8°C 91% 2.0 mph SW3.2 kmh SW -- 29.45 in997.3 mb 0.01 in0.3 mm 0.00 in0.0 mm 0.06 in1.5 mm
07:55 PM 48.4°F9.1°C 45.9°F7.7°C 91% 1.0 mph WSW1.6 kmh WSW -- 29.45 in997.3 mb 0.01 in0.3 mm 0.00 in0.0 mm 0.06 in1.5 mm
08:00 PM 48.3°F9.1°C 46.2°F7.9°C 92% 1.0 mph WSW1.6 kmh WSW 4.0 mph6.4 kmh 29.45 in997.3 mb 0.01 in0.3 mm 0.00 in0.0 mm 0.06 in1.5 mm
08:05 PM 48.2°F9.0°C 46.0°F7.8°C 92% Calm Calm -- 29.45 in997.3 mb 0.01 in0.3 mm 0.00 in0.0 mm 0.06 in1.5 mm
08:10 PM 48.2°F9.0°C 46.0°F7.8°C 92% 2.0 mph SW3.2 kmh SW -- 29.45 in997.3 mb 0.01 in0.3 mm 0.00 in0.0 mm 0.06 in1.5 mm
08:15 PM 48.2°F9.0°C 46.0°F7.8°C 92% 1.0 mph SW1.6 kmh SW -- 29.45 in997.3 mb 0.01 in0.3 mm 0.00 in0.0 mm 0.06 in1.5 mm
08:20 PM 48.1°F8.9°C 45.9°F7.7°C 92% 1.0 mph SW1.6 kmh SW -- 29.45 in997.3 mb 0.01 in0.3 mm 0.00 in0.0 mm 0.06 in1.5 mm
08:25 PM 48.1°F8.9°C 45.5°F7.5°C 91% 3.0 mph SW4.8 kmh SW 3.0 mph4.8 kmh 29.45 in997.3 mb 0.01 in0.3 mm 0.00 in0.0 mm 0.06 in1.5 mm
08:30 PM 48.3°F9.1°C 45.9°F7.7°C 91% 2.0 mph SW3.2 kmh SW -- 29.45 in997.3 mb 0.01 in0.3 mm 0.00 in0.0 mm 0.06 in1.5 mm
08:35 PM 48.2°F9.0°C 45.7°F7.6°C 91% 3.0 mph WSW4.8 kmh WSW -- 29.45 in997.3 mb 0.01 in0.3 mm 0.00 in0.0 mm 0.06 in1.5 mm
08:40 PM 48.1°F8.9°C 45.5°F7.5°C 91% 2.0 mph WSW3.2 kmh WSW -- 29.45 in997.3 mb 0.01 in0.3 mm 0.00 in0.0 mm 0.06 in1.5 mm
08:45 PM 47.9°F8.8°C 45.3°F7.4°C 91% 2.0 mph SW3.2 kmh SW -- 29.45 in997.3 mb 0.00 in0.0 mm 0.00 in0.0 mm 0.06 in1.5 mm
08:50 PM 47.6°F8.7°C 45.1°F7.3°C 91% 3.0 mph WSW4.8 kmh WSW 5.0 mph8.0 kmh 29.45 in997.3 mb 0.00 in0.0 mm 0.00 in0.0 mm 0.06 in1.5 mm
08:55 PM 47.2°F8.4°C 44.6°F7.0°C 91% 3.0 mph WSW4.8 kmh WSW -- 29.45 in997.3 mb 0.00 in0.0 mm 0.00 in0.0 mm 0.06 in1.5 mm
09:00 PM 46.9°F8.3°C 44.4°F6.9°C 91% 3.0 mph WSW4.8 kmh WSW -- 29.45 in997.3 mb 0.00 in0.0 mm 0.00 in0.0 mm 0.06 in1.5 mm
09:05 PM 46.9°F8.3°C 44.4°F6.9°C 91% 5.0 mph WSW8.0 kmh WSW -- 29.45 in997.3 mb 0.00 in0.0 mm 0.00 in0.0 mm 0.06 in1.5 mm
09:10 PM 46.7°F8.2°C 44.2°F6.8°C 91% 4.0 mph SW6.4 kmh SW -- 29.45 in997.3 mb 0.00 in0.0 mm 0.00 in0.0 mm 0.06 in1.5 mm
09:15 PM 46.7°F8.2°C 44.2°F6.8°C 91% 4.0 mph WSW6.4 kmh WSW 6.0 mph9.7 kmh 29.45 in997.3 mb 0.00 in0.0 mm 0.00 in0.0 mm 0.06 in1.5 mm
09:20 PM 46.5°F8.1°C 44.1°F6.7°C 91% 3.0 mph W4.8 kmh W -- 29.45 in997.3 mb 0.00 in0.0 mm 0.00 in0.0 mm 0.06 in1.5 mm
09:25 PM 46.0°F7.8°C 43.5°F6.4°C 91% 4.0 mph WSW6.4 kmh WSW -- 29.45 in997.3 mb 0.00 in0.0 mm 0.00 in0.0 mm 0.06 in1.5 mm
09:30 PM 45.7°F7.6°C 43.5°F6.4°C 92% 3.0 mph WSW4.8 kmh WSW -- 29.46 in997.6 mb 0.00 in0.0 mm 0.00 in0.0 mm 0.06 in1.5 mm
09:35 PM 45.5°F7.5°C 43.3°F6.3°C 92% 4.0 mph WSW6.4 kmh WSW -- 29.46 in997.6 mb 0.00 in0.0 mm 0.00 in0.0 mm 0.06 in1.5 mm
09:40 PM 45.4°F7.4°C 43.2°F6.2°C 92% 4.0 mph WSW6.4 kmh WSW 6.0 mph9.7 kmh 29.45 in997.3 mb 0.00 in0.0 mm 0.00 in0.0 mm 0.06 in1.5 mm
09:45 PM 45.3°F7.4°C 43.2°F6.2°C 92% 2.0 mph SW3.2 kmh SW -- 29.45 in997.3 mb 0.00 in0.0 mm 0.00 in0.0 mm 0.06 in1.5 mm
09:50 PM 45.3°F7.4°C 43.2°F6.2°C 92% 4.0 mph SW6.4 kmh SW -- 29.45 in997.3 mb 0.00 in0.0 mm 0.00 in0.0 mm 0.06 in1.5 mm
09:55 PM 45.1°F7.3°C 43.0°F6.1°C 92% 4.0 mph SW6.4 kmh SW -- 29.45 in997.3 mb 0.00 in0.0 mm 0.00 in0.0 mm 0.06 in1.5 mm
10:00 PM 45.0°F7.2°C 42.8°F6.0°C 92% 1.0 mph SW1.6 kmh SW -- 29.45 in997.3 mb 0.00 in0.0 mm 0.00 in0.0 mm 0.06 in1.5 mm
10:05 PM 44.9°F7.2°C 42.8°F6.0°C 92% 5.0 mph WSW8.0 kmh WSW 6.0 mph9.7 kmh 29.45 in997.3 mb 0.00 in0.0 mm 0.00 in0.0 mm 0.06 in1.5 mm
10:10 PM 44.9°F7.2°C 42.8°F6.0°C 92% 5.0 mph SW8.0 kmh SW -- 29.45 in997.3 mb 0.00 in0.0 mm 0.00 in0.0 mm 0.06 in1.5 mm
10:15 PM 44.8°F7.1°C 42.6°F5.9°C 92% 3.0 mph WSW4.8 kmh WSW -- 29.45 in997.3 mb 0.00 in0.0 mm 0.00 in0.0 mm 0.06 in1.5 mm
10:20 PM 44.6°F7.0°C 42.4°F5.8°C 92% 5.0 mph SW8.0 kmh SW -- 29.45 in997.3 mb 0.00 in0.0 mm 0.00 in0.0 mm 0.06 in1.5 mm
10:25 PM 44.5°F6.9°C 42.3°F5.7°C 92% 3.0 mph SW4.8 kmh SW -- 29.45 in997.3 mb 0.00 in0.0 mm 0.00 in0.0 mm 0.06 in1.5 mm
10:30 PM 44.5°F6.9°C 42.4°F5.8°C 93% 4.0 mph W6.4 kmh W 7.0 mph11.3 kmh 29.45 in997.3 mb 0.00 in0.0 mm 0.00 in0.0 mm 0.06 in1.5 mm
10:35 PM 44.6°F7.0°C 42.6°F5.9°C 93% 4.0 mph WSW6.4 kmh WSW -- 29.45 in997.3 mb 0.00 in0.0 mm 0.00 in0.0 mm 0.06 in1.5 mm
10:40 PM 44.7°F7.1°C 42.8°F6.0°C 93% 5.0 mph WSW8.0 kmh WSW -- 29.45 in997.3 mb 0.00 in0.0 mm 0.00 in0.0 mm 0.06 in1.5 mm
10:45 PM 44.9°F7.2°C 43.0°F6.1°C 93% 2.0 mph WSW3.2 kmh WSW -- 29.46 in997.6 mb 0.00 in0.0 mm 0.00 in0.0 mm 0.06 in1.5 mm
10:50 PM 45.0°F7.2°C 43.0°F6.1°C 93% 2.0 mph SW3.2 kmh SW -- 29.46 in997.6 mb 0.00 in0.0 mm 0.00 in0.0 mm 0.06 in1.5 mm
10:55 PM 45.1°F7.3°C 43.2°F6.2°C 93% 4.0 mph WSW6.4 kmh WSW 6.0 mph9.7 kmh 29.46 in997.6 mb 0.00 in0.0 mm 0.00 in0.0 mm 0.06 in1.5 mm
11:00 PM 45.2°F7.3°C 43.2°F6.2°C 93% 2.0 mph WSW3.2 kmh WSW -- 29.45 in997.3 mb 0.00 in0.0 mm 0.00 in0.0 mm 0.06 in1.5 mm
11:05 PM 45.4°F7.4°C 43.3°F6.3°C 93% 4.0 mph WSW6.4 kmh WSW -- 29.45 in997.3 mb 0.00 in0.0 mm 0.00 in0.0 mm 0.06 in1.5 mm
11:10 PM 45.6°F7.6°C 43.7°F6.5°C 93% 2.0 mph WSW3.2 kmh WSW -- 29.46 in997.6 mb 0.00 in0.0 mm 0.00 in0.0 mm 0.06 in1.5 mm
11:15 PM 45.8°F7.7°C 43.9°F6.6°C 93% 2.0 mph WSW3.2 kmh WSW -- 29.45 in997.3 mb 0.00 in0.0 mm 0.00 in0.0 mm 0.06 in1.5 mm
11:20 PM 46.2°F7.9°C 44.2°F6.8°C 93% 3.0 mph SW4.8 kmh SW 5.0 mph8.0 kmh 29.45 in997.3 mb 0.00 in0.0 mm 0.00 in0.0 mm 0.06 in1.5 mm
11:25 PM 46.5°F8.1°C 44.6°F7.0°C 93% 3.0 mph SW4.8 kmh SW -- 29.45 in997.3 mb 0.00 in0.0 mm 0.00 in0.0 mm 0.06 in1.5 mm
11:30 PM 46.6°F8.1°C 44.4°F6.9°C 92% 5.0 mph WSW8.0 kmh WSW -- 29.45 in997.3 mb 0.00 in0.0 mm 0.00 in0.0 mm 0.06 in1.5 mm
11:35 PM 46.5°F8.1°C 44.4°F6.9°C 92% 4.0 mph WSW6.4 kmh WSW -- 29.45 in997.3 mb 0.00 in0.0 mm 0.00 in0.0 mm 0.06 in1.5 mm
11:40 PM 46.5°F8.1°C 44.4°F6.9°C 92% 3.0 mph WSW4.8 kmh WSW -- 29.45 in997.3 mb 0.00 in0.0 mm 0.00 in0.0 mm 0.06 in1.5 mm
11:45 PM 46.5°F8.1°C 44.4°F6.9°C 92% 3.0 mph WSW4.8 kmh WSW 6.0 mph9.7 kmh 29.45 in997.3 mb 0.00 in0.0 mm 0.00 in0.0 mm 0.06 in1.5 mm
11:50 PM 46.6°F8.1°C 44.4°F6.9°C 92% 1.0 mph WSW1.6 kmh WSW -- 29.45 in997.3 mb 0.00 in0.0 mm 0.00 in0.0 mm 0.06 in1.5 mm
11:55 PM 46.4°F8.0°C 43.9°F6.6°C 91% 1.0 mph WSW1.6 kmh WSW -- 29.45 in997.3 mb 0.00 in0.0 mm 0.00 in0.0 mm 0.06 in1.5 mm